sensor_id;sensor_type;location;lat;lon;timestamp;temperature;humidity
74384;DHT22;62824;52.994;-3.936;2023-07-29T00:00:43;15.20;99.90
74384;DHT22;62824;52.994;-3.936;2023-07-29T00:03:09;15.20;99.90
74384;DHT22;62824;52.994;-3.936;2023-07-29T00:05:39;15.30;99.90
74384;DHT22;62824;52.994;-3.936;2023-07-29T00:08:06;15.20;99.90
74384;DHT22;62824;52.994;-3.936;2023-07-29T00:10:34;15.20;99.90
74384;DHT22;62824;52.994;-3.936;2023-07-29T00:13:01;15.20;99.90
74384;DHT22;62824;52.994;-3.936;2023-07-29T00:15:26;15.30;99.90
74384;DHT22;62824;52.994;-3.936;2023-07-29T00:17:52;15.20;99.90
74384;DHT22;62824;52.994;-3.936;2023-07-29T00:20:18;15.30;99.90
74384;DHT22;62824;52.994;-3.936;2023-07-29T00:22:44;15.30;99.90
74384;DHT22;62824;52.994;-3.936;2023-07-29T00:25:10;15.30;99.90
74384;DHT22;62824;52.994;-3.936;2023-07-29T00:27:35;15.30;99.90
74384;DHT22;62824;52.994;-3.936;2023-07-29T00:30:01;15.30;99.90
74384;DHT22;62824;52.994;-3.936;2023-07-29T00:32:29;15.30;99.90
74384;DHT22;62824;52.994;-3.936;2023-07-29T00:34:55;15.20;99.90
74384;DHT22;62824;52.994;-3.936;2023-07-29T00:37:21;15.20;99.90
74384;DHT22;62824;52.994;-3.936;2023-07-29T00:39:47;15.10;99.90
74384;DHT22;62824;52.994;-3.936;2023-07-29T00:42:13;15.20;99.90
74384;DHT22;62824;52.994;-3.936;2023-07-29T00:44:38;15.10;99.90
74384;DHT22;62824;52.994;-3.936;2023-07-29T00:47:05;15.10;99.90
74384;DHT22;62824;52.994;-3.936;2023-07-29T00:49:32;15.10;99.90
74384;DHT22;62824;52.994;-3.936;2023-07-29T00:51:58;15.10;99.90
74384;DHT22;62824;52.994;-3.936;2023-07-29T00:54:24;15.10;99.90
74384;DHT22;62824;52.994;-3.936;2023-07-29T00:56:50;15.10;99.90
74384;DHT22;62824;52.994;-3.936;2023-07-29T00:59:16;15.00;99.90
74384;DHT22;62824;52.994;-3.936;2023-07-29T01:01:42;15.00;99.90
74384;DHT22;62824;52.994;-3.936;2023-07-29T01:04:08;14.90;99.90
74384;DHT22;62824;52.994;-3.936;2023-07-29T01:06:38;14.80;99.90
74384;DHT22;62824;52.994;-3.936;2023-07-29T01:09:39;14.70;99.90
74384;DHT22;62824;52.994;-3.936;2023-07-29T01:17:54;14.70;99.90
74384;DHT22;62824;52.994;-3.936;2023-07-29T01:20:21;14.70;99.90
74384;DHT22;62824;52.994;-3.936;2023-07-29T01:22:49;14.80;99.90
74384;DHT22;62824;52.994;-3.936;2023-07-29T01:25:15;14.70;99.90
74384;DHT22;62824;52.994;-3.936;2023-07-29T01:27:45;14.80;99.90
74384;DHT22;62824;52.994;-3.936;2023-07-29T01:30:12;14.70;99.90
74384;DHT22;62824;52.994;-3.936;2023-07-29T01:33:15;14.70;99.90
74384;DHT22;62824;52.994;-3.936;2023-07-29T01:35:50;14.80;99.90
74384;DHT22;62824;52.994;-3.936;2023-07-29T01:38:24;14.90;99.90
74384;DHT22;62824;52.994;-3.936;2023-07-29T01:40:54;14.90;99.90
74384;DHT22;62824;52.994;-3.936;2023-07-29T01:43:20;14.80;99.90
74384;DHT22;62824;52.994;-3.936;2023-07-29T01:45:49;14.80;99.90
74384;DHT22;62824;52.994;-3.936;2023-07-29T01:48:15;14.80;99.90
74384;DHT22;62824;52.994;-3.936;2023-07-29T01:50:41;14.80;99.90
74384;DHT22;62824;52.994;-3.936;2023-07-29T01:53:06;14.90;99.90
74384;DHT22;62824;52.994;-3.936;2023-07-29T01:55:32;14.90;99.90
74384;DHT22;62824;52.994;-3.936;2023-07-29T01:57:58;14.90;99.90
74384;DHT22;62824;52.994;-3.936;2023-07-29T02:00:24;14.90;99.90
74384;DHT22;62824;52.994;-3.936;2023-07-29T02:02:49;14.90;99.90
74384;DHT22;62824;52.994;-3.936;2023-07-29T02:05:15;14.90;99.90
74384;DHT22;62824;52.994;-3.936;2023-07-29T02:07:41;14.80;99.90
74384;DHT22;62824;52.994;-3.936;2023-07-29T02:10:07;14.80;99.90
74384;DHT22;62824;52.994;-3.936;2023-07-29T02:12:33;14.80;99.90
74384;DHT22;62824;52.994;-3.936;2023-07-29T02:14:59;14.90;99.90
74384;DHT22;62824;52.994;-3.936;2023-07-29T02:17:25;14.80;99.90
74384;DHT22;62824;52.994;-3.936;2023-07-29T02:19:52;14.80;99.90
74384;DHT22;62824;52.994;-3.936;2023-07-29T02:22:18;14.80;99.90
74384;DHT22;62824;52.994;-3.936;2023-07-29T02:24:44;14.80;99.90
74384;DHT22;62824;52.994;-3.936;2023-07-29T02:27:10;14.80;99.90
74384;DHT22;62824;52.994;-3.936;2023-07-29T02:29:36;14.80;99.90
74384;DHT22;62824;52.994;-3.936;2023-07-29T02:32:02;14.80;99.90
74384;DHT22;62824;52.994;-3.936;2023-07-29T02:34:29;14.80;99.90
74384;DHT22;62824;52.994;-3.936;2023-07-29T02:36:55;14.80;99.90
74384;DHT22;62824;52.994;-3.936;2023-07-29T02:39:20;14.80;99.90
74384;DHT22;62824;52.994;-3.936;2023-07-29T02:41:47;14.80;99.90
74384;DHT22;62824;52.994;-3.936;2023-07-29T02:44:13;14.80;99.90
74384;DHT22;62824;52.994;-3.936;2023-07-29T02:46:39;14.70;99.90
74384;DHT22;62824;52.994;-3.936;2023-07-29T02:49:05;14.70;99.90
74384;DHT22;62824;52.994;-3.936;2023-07-29T02:51:31;14.70;99.90
74384;DHT22;62824;52.994;-3.936;2023-07-29T02:53:57;14.70;99.90
74384;DHT22;62824;52.994;-3.936;2023-07-29T02:56:23;14.80;99.90
74384;DHT22;62824;52.994;-3.936;2023-07-29T02:58:49;14.80;99.90
74384;DHT22;62824;52.994;-3.936;2023-07-29T03:01:17;14.70;99.90
74384;DHT22;62824;52.994;-3.936;2023-07-29T03:03:43;14.70;99.90
74384;DHT22;62824;52.994;-3.936;2023-07-29T03:06:10;14.70;99.90
74384;DHT22;62824;52.994;-3.936;2023-07-29T03:08:36;14.70;99.90
74384;DHT22;62824;52.994;-3.936;2023-07-29T03:11:10;14.70;99.90
74384;DHT22;62824;52.994;-3.936;2023-07-29T03:13:36;14.70;99.90
74384;DHT22;62824;52.994;-3.936;2023-07-29T03:18:32;14.60;99.90
74384;DHT22;62824;52.994;-3.936;2023-07-29T03:20:58;14.70;99.90
74384;DHT22;62824;52.994;-3.936;2023-07-29T03:23:24;14.60;99.90
74384;DHT22;62824;52.994;-3.936;2023-07-29T03:25:50;14.60;99.90
74384;DHT22;62824;52.994;-3.936;2023-07-29T03:28:28;14.60;99.90
74384;DHT22;62824;52.994;-3.936;2023-07-29T03:30:55;14.60;99.90
74384;DHT22;62824;52.994;-3.936;2023-07-29T03:33:21;14.60;99.90
74384;DHT22;62824;52.994;-3.936;2023-07-29T03:35:46;14.60;99.90
74384;DHT22;62824;52.994;-3.936;2023-07-29T03:38:13;14.60;99.90
74384;DHT22;62824;52.994;-3.936;2023-07-29T03:40:40;14.60;99.90
74384;DHT22;62824;52.994;-3.936;2023-07-29T03:43:06;14.70;99.90
74384;DHT22;62824;52.994;-3.936;2023-07-29T03:45:33;14.60;99.90
74384;DHT22;62824;52.994;-3.936;2023-07-29T03:47:59;14.60;99.90
74384;DHT22;62824;52.994;-3.936;2023-07-29T03:50:26;14.70;99.90
74384;DHT22;62824;52.994;-3.936;2023-07-29T03:52:52;14.60;99.90
74384;DHT22;62824;52.994;-3.936;2023-07-29T03:55:18;14.60;99.90
74384;DHT22;62824;52.994;-3.936;2023-07-29T03:57:44;14.60;99.90
74384;DHT22;62824;52.994;-3.936;2023-07-29T04:00:10;14.60;99.90
74384;DHT22;62824;52.994;-3.936;2023-07-29T04:02:36;14.70;99.90
74384;DHT22;62824;52.994;-3.936;2023-07-29T04:05:05;14.60;99.90
74384;DHT22;62824;52.994;-3.936;2023-07-29T04:07:35;14.70;99.90
74384;DHT22;62824;52.994;-3.936;2023-07-29T04:10:02;14.70;99.90
74384;DHT22;62824;52.994;-3.936;2023-07-29T04:12:28;14.70;99.90
74384;DHT22;62824;52.994;-3.936;2023-07-29T04:14:54;14.70;99.90
74384;DHT22;62824;52.994;-3.936;2023-07-29T04:17:20;14.70;99.90
74384;DHT22;62824;52.994;-3.936;2023-07-29T04:19:46;14.60;99.90
74384;DHT22;62824;52.994;-3.936;2023-07-29T04:22:12;14.70;99.90
74384;DHT22;62824;52.994;-3.936;2023-07-29T04:24:37;14.70;99.90
74384;DHT22;62824;52.994;-3.936;2023-07-29T04:27:04;14.70;99.90
74384;DHT22;62824;52.994;-3.936;2023-07-29T04:29:30;14.60;99.90
74384;DHT22;62824;52.994;-3.936;2023-07-29T04:31:56;14.60;99.90
74384;DHT22;62824;52.994;-3.936;2023-07-29T04:34:21;14.50;99.90
74384;DHT22;62824;52.994;-3.936;2023-07-29T04:36:48;14.50;99.90
74384;DHT22;62824;52.994;-3.936;2023-07-29T04:39:14;14.50;99.90
74384;DHT22;62824;52.994;-3.936;2023-07-29T04:41:40;14.60;99.90
74384;DHT22;62824;52.994;-3.936;2023-07-29T04:44:06;14.50;99.90
74384;DHT22;62824;52.994;-3.936;2023-07-29T04:46:33;14.50;99.90
74384;DHT22;62824;52.994;-3.936;2023-07-29T04:48:59;14.50;99.90
74384;DHT22;62824;52.994;-3.936;2023-07-29T04:51:24;14.50;99.90
74384;DHT22;62824;52.994;-3.936;2023-07-29T04:53:50;14.50;99.90
74384;DHT22;62824;52.994;-3.936;2023-07-29T04:56:16;14.50;99.90
74384;DHT22;62824;52.994;-3.936;2023-07-29T04:58:42;14.50;99.90
74384;DHT22;62824;52.994;-3.936;2023-07-29T05:01:08;14.50;99.90
74384;DHT22;62824;52.994;-3.936;2023-07-29T05:03:33;14.40;99.90
74384;DHT22;62824;52.994;-3.936;2023-07-29T05:05:59;14.40;99.90
74384;DHT22;62824;52.994;-3.936;2023-07-29T05:08:26;14.50;99.90
74384;DHT22;62824;52.994;-3.936;2023-07-29T05:10:53;14.50;99.90
74384;DHT22;62824;52.994;-3.936;2023-07-29T05:13:20;14.50;99.90
74384;DHT22;62824;52.994;-3.936;2023-07-29T05:15:48;14.60;99.90
74384;DHT22;62824;52.994;-3.936;2023-07-29T05:18:14;14.50;99.90
74384;DHT22;62824;52.994;-3.936;2023-07-29T05:20:41;14.60;99.90
74384;DHT22;62824;52.994;-3.936;2023-07-29T05:23:06;14.50;99.90
74384;DHT22;62824;52.994;-3.936;2023-07-29T05:25:32;14.60;99.90
74384;DHT22;62824;52.994;-3.936;2023-07-29T05:28:00;14.50;99.90
74384;DHT22;62824;52.994;-3.936;2023-07-29T05:30:26;14.50;99.90
74384;DHT22;62824;52.994;-3.936;2023-07-29T05:32:56;14.50;99.90
74384;DHT22;62824;52.994;-3.936;2023-07-29T05:35:23;14.50;99.90
74384;DHT22;62824;52.994;-3.936;2023-07-29T05:37:48;14.60;99.90
74384;DHT22;62824;52.994;-3.936;2023-07-29T05:40:14;14.50;99.90
74384;DHT22;62824;52.994;-3.936;2023-07-29T05:42:40;14.50;99.90
74384;DHT22;62824;52.994;-3.936;2023-07-29T05:45:07;14.60;99.90
74384;DHT22;62824;52.994;-3.936;2023-07-29T05:47:33;14.60;99.90
74384;DHT22;62824;52.994;-3.936;2023-07-29T05:49:58;14.60;99.90
74384;DHT22;62824;52.994;-3.936;2023-07-29T05:52:25;14.60;99.90
74384;DHT22;62824;52.994;-3.936;2023-07-29T05:54:51;14.60;99.90
74384;DHT22;62824;52.994;-3.936;2023-07-29T05:57:17;14.60;99.90
74384;DHT22;62824;52.994;-3.936;2023-07-29T05:59:42;14.70;99.90
74384;DHT22;62824;52.994;-3.936;2023-07-29T06:02:08;14.60;99.90
74384;DHT22;62824;52.994;-3.936;2023-07-29T06:04:35;14.60;99.90
74384;DHT22;62824;52.994;-3.936;2023-07-29T06:07:00;14.60;99.90
74384;DHT22;62824;52.994;-3.936;2023-07-29T06:09:26;14.60;99.90
74384;DHT22;62824;52.994;-3.936;2023-07-29T06:11:52;14.60;99.90
74384;DHT22;62824;52.994;-3.936;2023-07-29T06:14:18;14.60;99.90
74384;DHT22;62824;52.994;-3.936;2023-07-29T06:16:43;14.60;99.90
74384;DHT22;62824;52.994;-3.936;2023-07-29T06:19:09;14.60;99.90
74384;DHT22;62824;52.994;-3.936;2023-07-29T06:21:35;14.60;99.90
74384;DHT22;62824;52.994;-3.936;2023-07-29T06:24:01;14.70;99.90
74384;DHT22;62824;52.994;-3.936;2023-07-29T06:26:27;14.60;99.90
74384;DHT22;62824;52.994;-3.936;2023-07-29T06:28:53;14.60;99.90
74384;DHT22;62824;52.994;-3.936;2023-07-29T06:31:19;14.60;99.90
74384;DHT22;62824;52.994;-3.936;2023-07-29T06:33:45;14.60;99.90
74384;DHT22;62824;52.994;-3.936;2023-07-29T06:36:11;14.60;99.90
74384;DHT22;62824;52.994;-3.936;2023-07-29T06:38:37;14.40;99.90
74384;DHT22;62824;52.994;-3.936;2023-07-29T06:41:04;14.40;99.90
74384;DHT22;62824;52.994;-3.936;2023-07-29T06:43:30;14.40;99.90
74384;DHT22;62824;52.994;-3.936;2023-07-29T06:45:56;14.40;99.90
74384;DHT22;62824;52.994;-3.936;2023-07-29T06:48:22;14.40;99.90
74384;DHT22;62824;52.994;-3.936;2023-07-29T06:50:49;14.50;99.90
74384;DHT22;62824;52.994;-3.936;2023-07-29T06:53:16;14.60;99.90
74384;DHT22;62824;52.994;-3.936;2023-07-29T06:55:42;14.60;99.90
74384;DHT22;62824;52.994;-3.936;2023-07-29T06:58:08;14.60;99.90
74384;DHT22;62824;52.994;-3.936;2023-07-29T07:00:34;14.60;99.90
74384;DHT22;62824;52.994;-3.936;2023-07-29T07:03:00;14.60;99.90
74384;DHT22;62824;52.994;-3.936;2023-07-29T07:05:26;14.50;99.90
74384;DHT22;62824;52.994;-3.936;2023-07-29T07:07:51;14.50;99.90
74384;DHT22;62824;52.994;-3.936;2023-07-29T07:10:18;14.60;99.90
74384;DHT22;62824;52.994;-3.936;2023-07-29T07:12:44;14.60;99.90
74384;DHT22;62824;52.994;-3.936;2023-07-29T07:15:10;14.60;99.90
74384;DHT22;62824;52.994;-3.936;2023-07-29T07:17:35;14.60;99.90
74384;DHT22;62824;52.994;-3.936;2023-07-29T07:20:01;14.60;99.90
74384;DHT22;62824;52.994;-3.936;2023-07-29T07:22:27;14.70;99.90
74384;DHT22;62824;52.994;-3.936;2023-07-29T07:24:53;14.70;99.90
74384;DHT22;62824;52.994;-3.936;2023-07-29T07:27:19;14.80;99.90
74384;DHT22;62824;52.994;-3.936;2023-07-29T07:29:44;15.10;99.90
74384;DHT22;62824;52.994;-3.936;2023-07-29T07:32:10;15.10;99.90
74384;DHT22;62824;52.994;-3.936;2023-07-29T07:34:36;15.30;99.90
74384;DHT22;62824;52.994;-3.936;2023-07-29T07:37:02;15.30;99.90
74384;DHT22;62824;52.994;-3.936;2023-07-29T07:39:29;15.50;99.90
74384;DHT22;62824;52.994;-3.936;2023-07-29T07:41:55;15.60;99.90
74384;DHT22;62824;52.994;-3.936;2023-07-29T07:44:21;15.80;99.90
74384;DHT22;62824;52.994;-3.936;2023-07-29T07:46:46;15.80;99.90
74384;DHT22;62824;52.994;-3.936;2023-07-29T07:49:12;15.70;99.90
74384;DHT22;62824;52.994;-3.936;2023-07-29T07:51:39;15.80;99.90
74384;DHT22;62824;52.994;-3.936;2023-07-29T07:54:04;16.00;99.90
74384;DHT22;62824;52.994;-3.936;2023-07-29T07:56:30;15.90;99.90
74384;DHT22;62824;52.994;-3.936;2023-07-29T07:58:56;15.90;99.90
74384;DHT22;62824;52.994;-3.936;2023-07-29T08:01:22;15.70;99.90
74384;DHT22;62824;52.994;-3.936;2023-07-29T08:03:48;15.60;99.90
74384;DHT22;62824;52.994;-3.936;2023-07-29T08:06:14;15.70;99.90
74384;DHT22;62824;52.994;-3.936;2023-07-29T08:08:39;15.70;99.90
74384;DHT22;62824;52.994;-3.936;2023-07-29T08:11:05;15.70;99.90
74384;DHT22;62824;52.994;-3.936;2023-07-29T08:13:31;15.70;99.90
74384;DHT22;62824;52.994;-3.936;2023-07-29T08:15:57;15.60;99.90
74384;DHT22;62824;52.994;-3.936;2023-07-29T08:18:23;15.60;99.90
74384;DHT22;62824;52.994;-3.936;2023-07-29T08:20:56;15.60;99.90
74384;DHT22;62824;52.994;-3.936;2023-07-29T08:23:32;15.70;99.90
74384;DHT22;62824;52.994;-3.936;2023-07-29T08:26:00;15.70;99.90
74384;DHT22;62824;52.994;-3.936;2023-07-29T08:28:29;15.70;99.90
74384;DHT22;62824;52.994;-3.936;2023-07-29T08:30:56;15.70;99.90
74384;DHT22;62824;52.994;-3.936;2023-07-29T08:33:22;15.70;99.90
74384;DHT22;62824;52.994;-3.936;2023-07-29T08:35:47;15.70;99.90
74384;DHT22;62824;52.994;-3.936;2023-07-29T08:38:13;15.50;99.90
74384;DHT22;62824;52.994;-3.936;2023-07-29T08:40:45;15.40;99.90
74384;DHT22;62824;52.994;-3.936;2023-07-29T08:43:12;15.60;99.90
74384;DHT22;62824;52.994;-3.936;2023-07-29T08:45:40;15.80;99.90
74384;DHT22;62824;52.994;-3.936;2023-07-29T08:48:09;15.90;99.90
74384;DHT22;62824;52.994;-3.936;2023-07-29T08:50:39;15.90;99.90
74384;DHT22;62824;52.994;-3.936;2023-07-29T08:53:07;15.80;99.90
74384;DHT22;62824;52.994;-3.936;2023-07-29T08:55:33;15.80;99.90
74384;DHT22;62824;52.994;-3.936;2023-07-29T08:58:00;15.80;99.90
74384;DHT22;62824;52.994;-3.936;2023-07-29T09:00:28;15.80;99.90
74384;DHT22;62824;52.994;-3.936;2023-07-29T09:02:54;15.80;99.90
74384;DHT22;62824;52.994;-3.936;2023-07-29T09:05:21;15.80;99.90
74384;DHT22;62824;52.994;-3.936;2023-07-29T09:07:48;15.90;99.90
74384;DHT22;62824;52.994;-3.936;2023-07-29T09:10:22;16.00;99.90
74384;DHT22;62824;52.994;-3.936;2023-07-29T09:12:49;16.10;99.90
74384;DHT22;62824;52.994;-3.936;2023-07-29T09:15:33;16.20;99.90
74384;DHT22;62824;52.994;-3.936;2023-07-29T09:17:59;16.30;99.90
74384;DHT22;62824;52.994;-3.936;2023-07-29T09:20:34;16.20;99.90
74384;DHT22;62824;52.994;-3.936;2023-07-29T09:23:00;16.20;99.90
74384;DHT22;62824;52.994;-3.936;2023-07-29T09:25:28;16.00;99.90
74384;DHT22;62824;52.994;-3.936;2023-07-29T09:27:59;15.90;99.90
74384;DHT22;62824;52.994;-3.936;2023-07-29T09:30:26;16.00;99.90
74384;DHT22;62824;52.994;-3.936;2023-07-29T09:32:56;16.00;99.90
74384;DHT22;62824;52.994;-3.936;2023-07-29T09:35:23;16.10;99.90
74384;DHT22;62824;52.994;-3.936;2023-07-29T09:37:50;16.20;99.90
74384;DHT22;62824;52.994;-3.936;2023-07-29T09:40:17;16.10;99.90
74384;DHT22;62824;52.994;-3.936;2023-07-29T09:43:09;16.10;99.90
74384;DHT22;62824;52.994;-3.936;2023-07-29T09:45:36;16.20;99.90
74384;DHT22;62824;52.994;-3.936;2023-07-29T09:48:04;16.30;99.90
74384;DHT22;62824;52.994;-3.936;2023-07-29T09:50:35;16.30;99.90
74384;DHT22;62824;52.994;-3.936;2023-07-29T09:53:02;16.40;99.90
74384;DHT22;62824;52.994;-3.936;2023-07-29T09:55:28;16.40;99.90
74384;DHT22;62824;52.994;-3.936;2023-07-29T09:57:59;16.30;99.90
74384;DHT22;62824;52.994;-3.936;2023-07-29T10:00:28;16.40;99.90
74384;DHT22;62824;52.994;-3.936;2023-07-29T10:02:54;16.60;99.90
74384;DHT22;62824;52.994;-3.936;2023-07-29T10:05:28;16.50;99.90
74384;DHT22;62824;52.994;-3.936;2023-07-29T10:07:55;16.40;99.90
74384;DHT22;62824;52.994;-3.936;2023-07-29T10:10:21;16.40;99.90
74384;DHT22;62824;52.994;-3.936;2023-07-29T10:12:47;16.60;99.90
74384;DHT22;62824;52.994;-3.936;2023-07-29T10:15:13;16.90;99.90
74384;DHT22;62824;52.994;-3.936;2023-07-29T10:17:42;17.10;99.90
74384;DHT22;62824;52.994;-3.936;2023-07-29T10:20:10;17.10;99.90
74384;DHT22;62824;52.994;-3.936;2023-07-29T10:22:41;17.00;99.90
74384;DHT22;62824;52.994;-3.936;2023-07-29T10:25:08;16.90;99.90
74384;DHT22;62824;52.994;-3.936;2023-07-29T10:27:45;17.00;99.90
74384;DHT22;62824;52.994;-3.936;2023-07-29T10:30:13;17.10;99.90
74384;DHT22;62824;52.994;-3.936;2023-07-29T10:32:42;17.00;99.90
74384;DHT22;62824;52.994;-3.936;2023-07-29T10:35:10;16.90;99.90
74384;DHT22;62824;52.994;-3.936;2023-07-29T10:37:36;16.80;99.90
74384;DHT22;62824;52.994;-3.936;2023-07-29T10:40:07;16.90;99.90
74384;DHT22;62824;52.994;-3.936;2023-07-29T10:42:33;16.80;99.90
74384;DHT22;62824;52.994;-3.936;2023-07-29T10:44:58;16.90;99.90
74384;DHT22;62824;52.994;-3.936;2023-07-29T10:47:26;17.10;99.90
74384;DHT22;62824;52.994;-3.936;2023-07-29T10:49:57;17.20;99.90
74384;DHT22;62824;52.994;-3.936;2023-07-29T10:55:02;17.00;99.90
74384;DHT22;62824;52.994;-3.936;2023-07-29T10:57:38;17.00;99.90
74384;DHT22;62824;52.994;-3.936;2023-07-29T11:00:06;16.90;99.90
74384;DHT22;62824;52.994;-3.936;2023-07-29T11:02:35;16.80;99.90
74384;DHT22;62824;52.994;-3.936;2023-07-29T11:05:06;16.80;99.90
74384;DHT22;62824;52.994;-3.936;2023-07-29T11:07:46;16.80;99.90
74384;DHT22;62824;52.994;-3.936;2023-07-29T11:10:13;17.00;99.90
74384;DHT22;62824;52.994;-3.936;2023-07-29T11:12:50;17.10;99.90
74384;DHT22;62824;52.994;-3.936;2023-07-29T11:15:28;17.10;99.90
74384;DHT22;62824;52.994;-3.936;2023-07-29T11:17:59;17.00;99.90
74384;DHT22;62824;52.994;-3.936;2023-07-29T11:20:29;17.00;99.90
74384;DHT22;62824;52.994;-3.936;2023-07-29T11:22:57;17.10;99.90
74384;DHT22;62824;52.994;-3.936;2023-07-29T11:25:24;17.30;99.90
74384;DHT22;62824;52.994;-3.936;2023-07-29T11:27:54;17.40;99.90
74384;DHT22;62824;52.994;-3.936;2023-07-29T11:30:20;17.30;99.90
74384;DHT22;62824;52.994;-3.936;2023-07-29T11:32:48;17.30;99.90
74384;DHT22;62824;52.994;-3.936;2023-07-29T11:35:17;17.30;99.90
74384;DHT22;62824;52.994;-3.936;2023-07-29T11:37:50;17.40;99.90
74384;DHT22;62824;52.994;-3.936;2023-07-29T11:40:17;17.50;99.90
74384;DHT22;62824;52.994;-3.936;2023-07-29T11:42:44;17.40;99.90
74384;DHT22;62824;52.994;-3.936;2023-07-29T11:45:12;17.40;99.90
74384;DHT22;62824;52.994;-3.936;2023-07-29T11:47:39;18.10;99.90
74384;DHT22;62824;52.994;-3.936;2023-07-29T11:50:10;18.40;99.90
74384;DHT22;62824;52.994;-3.936;2023-07-29T11:52:37;18.40;99.90
74384;DHT22;62824;52.994;-3.936;2023-07-29T11:55:05;18.30;99.90
74384;DHT22;62824;52.994;-3.936;2023-07-29T11:57:34;18.30;99.90
74384;DHT22;62824;52.994;-3.936;2023-07-29T12:00:06;18.30;99.90
74384;DHT22;62824;52.994;-3.936;2023-07-29T12:02:43;18.30;99.90
74384;DHT22;62824;52.994;-3.936;2023-07-29T12:05:12;18.30;99.90
74384;DHT22;62824;52.994;-3.936;2023-07-29T12:07:39;18.30;99.90
74384;DHT22;62824;52.994;-3.936;2023-07-29T12:10:05;18.20;99.90
74384;DHT22;62824;52.994;-3.936;2023-07-29T12:12:32;18.40;99.90
74384;DHT22;62824;52.994;-3.936;2023-07-29T12:14:57;18.20;99.90
74384;DHT22;62824;52.994;-3.936;2023-07-29T12:17:23;18.40;99.90
74384;DHT22;62824;52.994;-3.936;2023-07-29T12:19:49;19.10;99.90
74384;DHT22;62824;52.994;-3.936;2023-07-29T12:22:19;18.80;98.20
74384;DHT22;62824;52.994;-3.936;2023-07-29T12:24:45;18.60;98.80
74384;DHT22;62824;52.994;-3.936;2023-07-29T12:27:13;18.30;99.90
74384;DHT22;62824;52.994;-3.936;2023-07-29T12:29:42;18.10;99.90
74384;DHT22;62824;52.994;-3.936;2023-07-29T12:32:09;18.00;99.90
74384;DHT22;62824;52.994;-3.936;2023-07-29T12:34:36;18.10;99.90
74384;DHT22;62824;52.994;-3.936;2023-07-29T12:37:03;18.10;99.90
74384;DHT22;62824;52.994;-3.936;2023-07-29T12:39:31;18.00;99.90
74384;DHT22;62824;52.994;-3.936;2023-07-29T12:41:59;18.00;99.90
74384;DHT22;62824;52.994;-3.936;2023-07-29T12:44:30;17.90;99.90
74384;DHT22;62824;52.994;-3.936;2023-07-29T12:46:56;18.00;99.90
74384;DHT22;62824;52.994;-3.936;2023-07-29T12:49:22;17.90;99.90
74384;DHT22;62824;52.994;-3.936;2023-07-29T12:51:48;18.20;99.90
74384;DHT22;62824;52.994;-3.936;2023-07-29T12:54:14;18.10;99.90
74384;DHT22;62824;52.994;-3.936;2023-07-29T12:56:40;18.00;99.90
74384;DHT22;62824;52.994;-3.936;2023-07-29T12:59:06;17.80;99.90
74384;DHT22;62824;52.994;-3.936;2023-07-29T13:01:34;17.90;99.90
74384;DHT22;62824;52.994;-3.936;2023-07-29T13:04:00;18.00;99.90
74384;DHT22;62824;52.994;-3.936;2023-07-29T13:06:26;18.20;99.90
74384;DHT22;62824;52.994;-3.936;2023-07-29T13:08:55;18.10;99.90
74384;DHT22;62824;52.994;-3.936;2023-07-29T13:11:21;18.10;99.90
74384;DHT22;62824;52.994;-3.936;2023-07-29T13:13:47;18.10;99.90
74384;DHT22;62824;52.994;-3.936;2023-07-29T13:16:13;18.10;99.90
74384;DHT22;62824;52.994;-3.936;2023-07-29T13:18:39;17.90;99.90
74384;DHT22;62824;52.994;-3.936;2023-07-29T13:21:05;17.80;99.90
74384;DHT22;62824;52.994;-3.936;2023-07-29T13:23:31;17.70;99.90
74384;DHT22;62824;52.994;-3.936;2023-07-29T13:25:57;17.70;99.90
74384;DHT22;62824;52.994;-3.936;2023-07-29T13:28:23;17.60;99.90
74384;DHT22;62824;52.994;-3.936;2023-07-29T13:30:49;17.60;99.90
74384;DHT22;62824;52.994;-3.936;2023-07-29T13:33:15;17.70;99.90
74384;DHT22;62824;52.994;-3.936;2023-07-29T13:35:41;17.70;99.90
74384;DHT22;62824;52.994;-3.936;2023-07-29T13:38:07;17.90;99.90
74384;DHT22;62824;52.994;-3.936;2023-07-29T13:40:33;17.80;99.90
74384;DHT22;62824;52.994;-3.936;2023-07-29T13:42:59;17.70;99.90
74384;DHT22;62824;52.994;-3.936;2023-07-29T13:45:25;17.90;99.90
74384;DHT22;62824;52.994;-3.936;2023-07-29T13:47:51;18.20;99.90
74384;DHT22;62824;52.994;-3.936;2023-07-29T13:50:18;18.30;99.90
74384;DHT22;62824;52.994;-3.936;2023-07-29T13:52:44;18.80;99.90
74384;DHT22;62824;52.994;-3.936;2023-07-29T13:55:10;18.90;99.90
74384;DHT22;62824;52.994;-3.936;2023-07-29T13:57:37;19.10;99.00
74384;DHT22;62824;52.994;-3.936;2023-07-29T14:00:04;19.40;95.00
74384;DHT22;62824;52.994;-3.936;2023-07-29T14:02:30;19.10;92.40
74384;DHT22;62824;52.994;-3.936;2023-07-29T14:04:57;19.10;91.60
74384;DHT22;62824;52.994;-3.936;2023-07-29T14:07:23;18.90;91.00
74384;DHT22;62824;52.994;-3.936;2023-07-29T14:09:49;19.10;95.10
74384;DHT22;62824;52.994;-3.936;2023-07-29T14:12:14;19.10;92.70
74384;DHT22;62824;52.994;-3.936;2023-07-29T14:14:44;18.80;90.10
74384;DHT22;62824;52.994;-3.936;2023-07-29T14:17:10;18.70;97.60
74384;DHT22;62824;52.994;-3.936;2023-07-29T14:19:37;18.90;98.30
74384;DHT22;62824;52.994;-3.936;2023-07-29T14:22:03;18.70;98.60
74384;DHT22;62824;52.994;-3.936;2023-07-29T14:24:29;18.50;99.90
74384;DHT22;62824;52.994;-3.936;2023-07-29T14:26:54;18.60;99.90
74384;DHT22;62824;52.994;-3.936;2023-07-29T14:29:20;18.80;99.90
74384;DHT22;62824;52.994;-3.936;2023-07-29T14:31:46;18.80;99.90
74384;DHT22;62824;52.994;-3.936;2023-07-29T14:34:12;18.70;99.90
74384;DHT22;62824;52.994;-3.936;2023-07-29T14:36:38;18.60;99.90
74384;DHT22;62824;52.994;-3.936;2023-07-29T14:39:04;18.60;99.90
74384;DHT22;62824;52.994;-3.936;2023-07-29T14:41:30;18.40;99.90
74384;DHT22;62824;52.994;-3.936;2023-07-29T14:44:06;18.30;99.90
74384;DHT22;62824;52.994;-3.936;2023-07-29T14:46:38;18.40;99.90
74384;DHT22;62824;52.994;-3.936;2023-07-29T14:49:04;18.20;99.90
74384;DHT22;62824;52.994;-3.936;2023-07-29T14:51:30;18.10;99.90
74384;DHT22;62824;52.994;-3.936;2023-07-29T14:53:55;18.10;99.90
74384;DHT22;62824;52.994;-3.936;2023-07-29T14:56:21;18.00;99.90
74384;DHT22;62824;52.994;-3.936;2023-07-29T14:58:47;17.90;99.90
74384;DHT22;62824;52.994;-3.936;2023-07-29T15:01:15;17.90;99.90
74384;DHT22;62824;52.994;-3.936;2023-07-29T15:03:41;17.80;99.90
74384;DHT22;62824;52.994;-3.936;2023-07-29T15:06:07;17.80;99.90
74384;DHT22;62824;52.994;-3.936;2023-07-29T15:08:33;17.80;99.90
74384;DHT22;62824;52.994;-3.936;2023-07-29T15:10:58;17.80;99.90
74384;DHT22;62824;52.994;-3.936;2023-07-29T15:13:24;17.70;99.90
74384;DHT22;62824;52.994;-3.936;2023-07-29T15:15:50;17.60;99.90
74384;DHT22;62824;52.994;-3.936;2023-07-29T15:18:16;17.50;99.90
74384;DHT22;62824;52.994;-3.936;2023-07-29T15:20:43;17.40;99.90
74384;DHT22;62824;52.994;-3.936;2023-07-29T15:23:09;17.40;99.90
74384;DHT22;62824;52.994;-3.936;2023-07-29T15:25:34;17.30;99.90